Time;durP1;ratioP1;P1;durP2;ratioP2;P2;SDS_P1;SDS_P2;PMS_P1;PMS_P2;Temp;Humidity;BMP_temperature;BMP_pressure;BME280_temperature;BME280_humidity;BME280_pressure;Samples;Min_cycle;Max_cycle;Signal;HPM_P1;HPM_P2
2022/11/06 00:01:28;;;;;;;6.35;3.13;;;;;;;;;;4971741;28;20058;-63
2022/11/06 00:03:58;;;;;;;6.40;2.33;;;;;;;;;;4952173;28;20175;-63
2022/11/06 00:09:19;;;;;;;8.35;2.85;;;;;;;;;;4946410;28;20067;-63
2022/11/06 00:11:51;;;;;;;8.52;2.72;;;;;;;;;;4933111;29;20440;-63
2022/11/06 00:14:21;;;;;;;;;;;;;;;;;;4929134;28;20507;-64
2022/11/06 00:16:51;;;;;;;7.68;2.92;;;;;;;;;;4982631;28;19922;-63
2022/11/06 00:19:21;;;;;;;7.10;2.72;;;;;;;;;;4993622;28;20066;-64
2022/11/06 00:21:51;;;;;;;8.38;3.25;;;;;;;;;;5010135;28;20049;-64
2022/11/06 00:24:22;;;;;;;6.13;2.70;;;;;;;;;;4971048;28;20047;-64
2022/11/06 00:26:52;;;;;;;6.82;2.47;;;;;;;;;;4971151;28;20058;-63
2022/11/06 00:29:23;;;;;;;10.38;2.92;;;;;;;;;;4970936;28;20530;-64
2022/11/06 00:31:53;;;;;;;5.57;2.55;;;;;;;;;;4963114;28;20062;-63
2022/11/06 00:34:23;;;;;;;8.23;2.58;;;;;;;;;;4995041;28;20085;-63
2022/11/06 00:36:53;;;;;;;8.07;2.50;;;;;;;;;;5010143;28;20054;-64
2022/11/06 00:39:23;;;;;;;7.30;2.72;;;;;;;;;;4970985;28;20495;-63
2022/11/06 00:41:53;;;;;;;6.22;2.60;;;;;;;;;;4978482;28;20054;-64
2022/11/06 00:44:23;;;;;;;8.88;2.70;;;;;;;;;;4970514;28;20135;-64
2022/11/06 00:46:53;;;;;;;6.43;2.22;;;;;;;;;;4970732;28;20062;-64
2022/11/06 00:49:23;;;;;;;12.48;3.42;;;;;;;;;;4970796;28;20175;-64
2022/11/06 00:51:53;;;;;;;11.95;2.90;;;;;;;;;;4940303;29;20428;-63
2022/11/06 00:54:23;;;;;;;7.75;2.97;;;;;;;;;;4951116;29;20059;-64
2022/11/06 00:56:53;;;;;;;11.75;3.05;;;;;;;;;;4900250;29;20675;-63
2022/11/06 00:59:23;;;;;;;6.97;2.58;;;;;;;;;;4884750;29;20071;-63
2022/11/06 01:01:53;;;;;;;11.25;3.20;;;;;;;;;;4940554;28;20066;-63
2022/11/06 01:04:24;;;;;;;7.85;3.03;;;;;;;;;;4951530;28;20087;-63
2022/11/06 01:06:57;;;;;;;7.85;3.25;;;;;;;;;;4935220;29;20054;-63
2022/11/06 01:09:28;;;;;;;8.90;2.58;;;;;;;;;;4951205;28;20507;-63
2022/11/06 01:12:00;;;;;;;10.82;2.75;;;;;;;;;;4951029;28;20055;-64
2022/11/06 01:14:45;;;;;;;8.70;2.97;;;;;;;;;;4931637;29;20096;-63
2022/11/06 01:17:16;;;;;;;8.95;2.97;;;;;;;;;;4911176;29;20055;-63
2022/11/06 01:19:45;;;;;;;7.60;2.72;;;;;;;;;;4950821;28;20059;-64
2022/11/06 01:22:16;;;;;;;7.15;2.92;;;;;;;;;;4951008;28;20621;-63
2022/11/06 01:24:46;;;;;;;11.02;3.05;;;;;;;;;;4973585;28;20054;-63
2022/11/06 01:27:16;;;;;;;11.77;3.15;;;;;;;;;;4989678;28;20066;-64
2022/11/06 01:29:55;;;;;;;10.02;3.15;;;;;;;;;;5002556;28;20513;-64
2022/11/06 01:32:26;;;;;;;6.70;3.42;;;;;;;;;;5005567;28;20064;-63
2022/11/06 01:34:56;;;;;;;8.30;3.35;;;;;;;;;;5035073;28;20048;-64
2022/11/06 01:37:26;;;;;;;8.60;3.13;;;;;;;;;;5048620;28;20528;-63
2022/11/06 01:39:56;;;;;;;9.73;3.22;;;;;;;;;;5048130;28;20052;-64
2022/11/06 01:42:26;;;;;;;10.40;3.78;;;;;;;;;;5048720;28;20065;-63
2022/11/06 01:45:05;;;;;;;11.52;3.97;;;;;;;;;;5048822;28;20057;-63
2022/11/06 01:47:35;;;;;;;;;;;;;;;;;;5049195;28;20489;-63
2022/11/06 01:50:09;;;;;;;9.18;3.47;;;;;;;;;;5048693;28;19921;-64
2022/11/06 01:52:40;;;;;;;6.57;3.10;;;;;;;;;;5028499;28;20452;-64
2022/11/06 01:55:22;;;;;;;8.10;3.13;;;;;;;;;;5028855;28;20057;-63
2022/11/06 01:57:54;;;;;;;7.85;3.58;;;;;;;;;;5028851;28;20053;-63
2022/11/06 02:00:25;;;;;;;7.18;3.03;;;;;;;;;;5028800;28;20497;-64
2022/11/06 02:02:55;;;;;;;14.13;3.40;;;;;;;;;;5028585;28;20049;-63
2022/11/06 02:05:27;;;;;;;5.32;2.70;;;;;;;;;;5028790;28;20394;-63
2022/11/06 02:08:00;;;;;;;8.38;3.42;;;;;;;;;;5028776;28;20530;-63
2022/11/06 02:10:31;;;;;;;8.23;3.03;;;;;;;;;;5028588;28;20664;-63
2022/11/06 02:13:07;;;;;;;6.70;3.50;;;;;;;;;;5028727;28;20516;-64
2022/11/06 02:16:09;;;;;;;8.13;2.85;;;;;;;;;;5022990;28;20068;-63
2022/11/06 02:19:08;;;;;;;8.65;3.10;;;;;;;;;;5047297;28;20053;-63
2022/11/06 02:22:19;;;;;;;9.10;3.17;;;;;;;;;;4989172;28;20053;-64
2022/11/06 02:25:13;;;;;;;7.50;3.08;;;;;;;;;;4956892;28;20695;-64
2022/11/06 02:27:51;;;;;;;10.10;3.10;;;;;;;;;;4989266;28;20062;-63
2022/11/06 02:30:22;;;;;;;6.85;3.22;;;;;;;;;;4989178;28;20085;-65
2022/11/06 02:32:59;;;;;;;6.88;2.97;;;;;;;;;;4989184;28;20058;-64
2022/11/06 02:35:51;;;;;;;7.22;2.42;;;;;;;;;;4989372;28;20073;-63
2022/11/06 02:38:48;;;;;;;8.63;3.13;;;;;;;;;;4941149;28;20633;-64
2022/11/06 02:41:27;;;;;;;8.13;3.40;;;;;;;;;;5004643;28;20049;-63
2022/11/06 02:43:58;;;;;;;5.68;2.67;;;;;;;;;;5008932;28;20049;-63
2022/11/06 02:46:30;;;;;;;6.95;2.88;;;;;;;;;;5008537;28;20057;-64
2022/11/06 02:49:27;;;;;;;8.15;3.03;;;;;;;;;;4992718;28;20057;-63
2022/11/06 02:52:06;;;;;;;8.93;3.65;;;;;;;;;;5011501;28;20066;-63
2022/11/06 02:54:38;;;;;;;;;;;;;;;;;;4982994;28;20053;-63
2022/11/06 02:57:13;;;;;;;9.93;3.50;;;;;;;;;;5032003;28;19928;-64
2022/11/06 02:59:58;;;;;;;10.40;2.90;;;;;;;;;;5029055;28;20060;-63
2022/11/06 03:02:36;;;;;;;8.27;3.45;;;;;;;;;;5062332;28;20048;-63
2022/11/06 03:05:31;;;;;;;6.95;2.97;;;;;;;;;;5114967;28;20050;-63
2022/11/06 03:08:34;;;;;;;7.00;3.38;;;;;;;;;;5097113;28;20043;-63
2022/11/06 03:11:24;;;;;;;6.75;2.95;;;;;;;;;;5051422;28;20504;-64
2022/11/06 03:13:57;;;;;;;8.45;3.00;;;;;;;;;;5018241;28;20057;-64
2022/11/06 03:16:37;;;;;;;7.57;3.03;;;;;;;;;;5051168;28;20060;-63
2022/11/06 03:19:41;;;;;;;10.40;3.05;;;;;;;;;;5051369;28;20041;-64
2022/11/06 03:22:30;;;;;;;8.30;3.40;;;;;;;;;;5051261;28;20056;-64
2022/11/06 03:25:03;;;;;;;7.50;4.18;;;;;;;;;;5051086;28;20500;-63
2022/11/06 03:27:56;;;;;;;;;;;;;;;;;;5051716;28;20052;-64
2022/11/06 03:30:26;;;;;;;9.85;3.22;;;;;;;;;;5011647;28;20400;-64
2022/11/06 03:33:07;;;;;;;7.57;3.17;;;;;;;;;;5011628;28;20061;-63
2022/11/06 03:35:59;;;;;;;7.18;2.80;;;;;;;;;;5011286;28;20057;-63
2022/11/06 03:38:36;;;;;;;8.38;2.90;;;;;;;;;;5011220;28;20053;-64
2022/11/06 03:41:17;;;;;;;9.13;3.05;;;;;;;;;;5011031;28;20065;-64
2022/11/06 03:43:49;;;;;;;6.50;2.53;;;;;;;;;;5011687;28;20049;-63
2022/11/06 03:46:23;;;;;;;8.85;2.60;;;;;;;;;;4991420;28;20050;-64
2022/11/06 03:48:59;;;;;;;6.93;2.58;;;;;;;;;;4958927;28;20057;-64
2022/11/06 03:51:41;;;;;;;6.30;2.70;;;;;;;;;;4955717;28;20062;-63
2022/11/06 03:54:19;;;;;;;7.55;2.75;;;;;;;;;;4972174;28;20050;-64
2022/11/06 03:57:00;;;;;;;7.78;2.67;;;;;;;;;;4971786;28;20039;-64
2022/11/06 03:59:38;;;;;;;9.32;2.75;;;;;;;;;;4971998;28;20050;-64
2022/11/06 04:02:11;;;;;;;8.63;2.78;;;;;;;;;;4971398;28;20051;-64
2022/11/06 04:04:56;;;;;;;7.30;2.78;;;;;;;;;;4955619;28;20054;-63
2022/11/06 04:07:40;;;;;;;6.68;3.08;;;;;;;;;;5015926;28;20500;-64
2022/11/06 04:16:00;;;;;;;6.03;2.45;;;;;;;;;;5030493;28;20045;-64
2022/11/06 04:18:30;;;;;;;6.68;2.67;;;;;;;;;;5030001;28;20106;-64
2022/11/06 04:21:22;;;;;;;7.35;2.63;;;;;;;;;;5030150;28;20057;-64
2022/11/06 04:27:27;;;;;;;7.35;3.00;;;;;;;;;;5010263;28;20062;-63
2022/11/06 04:30:08;;;;;;;8.30;2.95;;;;;;;;;;4960655;28;20061;-64
2022/11/06 04:32:54;;;;;;;7.72;2.55;;;;;;;;;;5010605;28;20517;-65
2022/11/06 04:35:56;;;;;;;7.05;2.78;;;;;;;;;;5010111;28;20053;-64
2022/11/06 04:38:53;;;;;;;8.60;2.53;;;;;;;;;;4977558;28;20058;-65
2022/11/06 04:41:34;;;;;;;9.13;2.60;;;;;;;;;;4977242;28;20053;-65
2022/11/06 04:44:08;;;;;;;5.57;2.65;;;;;;;;;;5010022;28;20063;-65
2022/11/06 04:46:55;;;;;;;8.50;2.85;;;;;;;;;;4993671;28;20053;-65
2022/11/06 04:49:28;;;;;;;9.07;2.65;;;;;;;;;;5004429;28;20065;-65
2022/11/06 04:52:01;;;;;;;9.05;2.60;;;;;;;;;;5029650;28;20505;-65
2022/11/06 04:54:32;;;;;;;7.63;2.63;;;;;;;;;;5029870;28;20076;-65
2022/11/06 04:57:03;;;;;;;7.60;2.47;;;;;;;;;;5029543;28;20634;-65
2022/11/06 04:59:36;;;;;;;5.32;2.63;;;;;;;;;;4996679;28;20054;-65
2022/11/06 05:02:07;;;;;;;6.80;2.58;;;;;;;;;;5029461;28;20558;-65
2022/11/06 05:04:37;;;;;;;8.15;2.72;;;;;;;;;;5089286;28;20063;-65
2022/11/06 05:07:12;;;;;;;16.02;3.03;;;;;;;;;;5089705;28;20519;-65
2022/11/06 05:09:42;;;;;;;8.50;3.03;;;;;;;;;;5089572;28;20052;-65
2022/11/06 05:12:12;;;;;;;7.60;3.58;;;;;;;;;;5089664;28;20110;-65
2022/11/06 05:14:43;;;;;;;5.45;2.42;;;;;;;;;;5055127;28;20519;-64
2022/11/06 05:17:13;;;;;;;5.53;2.35;;;;;;;;;;5089374;28;20054;-65
2022/11/06 05:19:43;;;;;;;7.38;2.88;;;;;;;;;;5089112;28;20048;-65
2022/11/06 05:25:01;;;;;;;5.72;2.47;;;;;;;;;;5089468;28;20052;-64
2022/11/06 05:27:32;;;;;;;6.47;2.55;;;;;;;;;;5105703;28;20055;-65
2022/11/06 05:30:01;;;;;;;8.02;2.63;;;;;;;;;;5111988;28;20039;-65
2022/11/06 05:32:31;;;;;;;8.20;3.10;;;;;;;;;;5059326;28;20074;-65
2022/11/06 05:35:01;;;;;;;6.70;2.53;;;;;;;;;;5076043;28;20048;-65
2022/11/06 05:37:31;;;;;;;6.80;2.60;;;;;;;;;;5111780;28;20044;-65
2022/11/06 05:40:01;;;;;;;5.70;2.55;;;;;;;;;;5112151;28;20040;-64
2022/11/06 05:42:31;;;;;;;12.15;2.92;;;;;;;;;;5112050;28;20039;-65
2022/11/06 05:45:01;;;;;;;5.15;2.72;;;;;;;;;;5076138;28;20062;-65
2022/11/06 05:47:31;;;;;;;6.63;2.55;;;;;;;;;;5111941;28;20411;-64
2022/11/06 05:50:01;;;;;;;4.53;2.33;;;;;;;;;;5111376;28;20039;-64
2022/11/06 05:52:33;;;;;;;6.30;2.50;;;;;;;;;;5076022;28;20056;-65
2022/11/06 05:55:06;;;;;;;7.57;2.78;;;;;;;;;;5059047;28;20055;-65
2022/11/06 05:57:43;;;;;;;5.63;2.30;;;;;;;;;;5068492;28;20049;-65
2022/11/06 06:00:13;;;;;;;5.50;2.35;;;;;;;;;;5048347;28;20045;-65
2022/11/06 06:02:43;;;;;;;8.80;3.05;;;;;;;;;;5028498;28;20160;-65
2022/11/06 06:05:14;;;;;;;7.28;2.90;;;;;;;;;;5028900;28;20506;-65
2022/11/06 06:07:45;;;;;;;7.82;2.63;;;;;;;;;;4989201;28;20057;-64
2022/11/06 06:10:15;;;;;;;6.03;2.63;;;;;;;;;;4989062;28;20554;-65
2022/11/06 06:12:44;;;;;;;7.35;2.60;;;;;;;;;;4989204;28;20066;-64
2022/11/06 06:15:14;;;;;;;9.73;2.70;;;;;;;;;;4940804;28;20785;-64
2022/11/06 06:17:45;;;;;;;8.70;2.83;;;;;;;;;;4956827;28;20065;-65
2022/11/06 06:20:15;;;;;;;12.23;2.90;;;;;;;;;;4988983;28;20517;-65
2022/11/06 06:22:53;;;;;;;9.57;2.60;;;;;;;;;;4989187;28;20411;-65
2022/11/06 06:25:24;;;;;;;6.75;2.70;;;;;;;;;;4991341;28;20414;-65
2022/11/06 06:27:55;;;;;;;4.55;2.10;;;;;;;;;;4992879;28;20058;-65
2022/11/06 06:30:26;;;;;;;6.57;2.60;;;;;;;;;;4944643;28;20054;-65
2022/11/06 06:32:56;;;;;;;7.60;2.08;;;;;;;;;;4992943;28;20211;-65
2022/11/06 06:35:26;;;;;;;6.38;2.38;;;;;;;;;;5008524;28;20429;-65
2022/11/06 06:37:56;;;;;;;5.93;2.10;;;;;;;;;;5042317;28;20063;-65
2022/11/06 06:40:26;;;;;;;6.18;2.22;;;;;;;;;;5051960;28;20497;-64
2022/11/06 06:42:56;;;;;;;8.60;2.70;;;;;;;;;;5051977;28;20045;-65
2022/11/06 06:45:27;;;;;;;7.43;2.30;;;;;;;;;;5046173;28;20434;-64
2022/11/06 06:48:02;;;;;;;6.22;2.25;;;;;;;;;;5092333;28;20055;-65
2022/11/06 06:50:32;;;;;;;5.80;2.47;;;;;;;;;;5074890;28;20048;-65
2022/11/06 06:53:02;;;;;;;6.30;2.60;;;;;;;;;;5041909;28;20064;-65
2022/11/06 06:55:32;;;;;;;6.97;2.63;;;;;;;;;;4982422;28;20060;-65
2022/11/06 06:58:02;;;;;;;7.50;2.50;;;;;;;;;;4992159;28;20050;-64
2022/11/06 07:00:32;;;;;;;5.05;2.25;;;;;;;;;;4975948;28;20494;-64
2022/11/06 07:03:02;;;;;;;7.22;2.25;;;;;;;;;;4975964;28;20058;-64
2022/11/06 07:05:33;;;;;;;5.00;2.33;;;;;;;;;;4992555;28;20081;-65
2022/11/06 07:08:02;;;;;;;5.80;2.30;;;;;;;;;;4972697;28;20139;-65
2022/11/06 07:10:33;;;;;;;5.22;2.42;;;;;;;;;;4972644;28;20066;-65
2022/11/06 07:13:05;;;;;;;6.72;2.53;;;;;;;;;;4972773;28;20055;-65
2022/11/06 07:15:35;;;;;;;8.05;2.50;;;;;;;;;;4953051;28;20059;-65
2022/11/06 07:18:06;;;;;;;5.57;2.60;;;;;;;;;;4953156;28;20535;-65
2022/11/06 07:20:38;;;;;;;6.07;2.47;;;;;;;;;;4953084;28;20055;-65
2022/11/06 07:23:08;;;;;;;6.00;2.55;;;;;;;;;;4973433;28;20058;-64
2022/11/06 07:25:39;;;;;;;6.20;2.20;;;;;;;;;;4943465;28;20498;-65
2022/11/06 07:28:09;;;;;;;5.43;2.40;;;;;;;;;;4975819;28;20063;-65
2022/11/06 07:30:38;;;;;;;5.22;2.40;;;;;;;;;;4991844;28;20434;-65
2022/11/06 07:33:08;;;;;;;6.47;2.45;;;;;;;;;;5004404;28;20064;-65
2022/11/06 07:35:38;;;;;;;5.15;2.35;;;;;;;;;;5036805;28;20075;-65
2022/11/06 07:38:08;;;;;;;9.38;3.42;;;;;;;;;;5050078;28;20052;-65
2022/11/06 07:40:39;;;;;;;4.68;2.35;;;;;;;;;;5050758;28;20049;-65
2022/11/06 07:43:11;;;;;;;5.32;2.65;;;;;;;;;;5050506;28;20049;-65
2022/11/06 07:45:41;;;;;;;7.43;2.38;;;;;;;;;;5040435;28;20058;-65
2022/11/06 07:48:11;;;;;;;5.70;2.42;;;;;;;;;;5030944;28;20061;-64
2022/11/06 07:50:42;;;;;;;6.13;2.35;;;;;;;;;;5030936;28;20072;-65
2022/11/06 07:53:12;;;;;;;11.15;2.65;;;;;;;;;;5030716;28;20064;-65
2022/11/06 07:55:53;;;;;;;5.97;2.53;;;;;;;;;;5050382;28;20521;-64
2022/11/06 07:58:24;;;;;;;9.43;2.80;;;;;;;;;;5050586;28;20053;-65
2022/11/06 08:00:57;;;;;;;4.90;2.33;;;;;;;;;;5033828;28;20057;-64
2022/11/06 08:03:30;;;;;;;5.93;2.13;;;;;;;;;;5050353;28;20056;-64
2022/11/06 08:06:04;;;;;;;5.43;2.20;;;;;;;;;;5033684;28;20127;-64
2022/11/06 08:08:34;;;;;;;7.78;2.47;;;;;;;;;;5010426;28;20054;-65
2022/11/06 08:11:05;;;;;;;6.47;2.97;;;;;;;;;;5010607;28;20058;-64
2022/11/06 08:13:37;;;;;;;5.55;2.30;;;;;;;;;;4978079;28;20054;-64
2022/11/06 08:16:12;;;;;;;5.90;2.50;;;;;;;;;;5023042;28;20069;-65
2022/11/06 08:18:43;;;;;;;8.07;2.42;;;;;;;;;;5030165;28;20433;-64
2022/11/06 08:21:13;;;;;;;4.78;2.20;;;;;;;;;;5016360;28;20045;-64
2022/11/06 08:23:44;;;;;;;5.93;2.42;;;;;;;;;;4993688;28;20050;-65
2022/11/06 08:26:15;;;;;;;10.50;2.67;;;;;;;;;;5010197;28;20054;-65
2022/11/06 08:28:44;;;;;;;6.57;2.50;;;;;;;;;;5010574;28;20069;-65
2022/11/06 08:31:14;;;;;;;6.25;2.33;;;;;;;;;;4977614;28;20073;-65
2022/11/06 08:33:46;;;;;;;8.27;2.67;;;;;;;;;;4978015;28;20410;-65
2022/11/06 08:36:17;;;;;;;5.40;2.67;;;;;;;;;;5010102;28;20522;-65
2022/11/06 08:38:47;;;;;;;6.30;2.20;;;;;;;;;;5010110;28;20050;-64
2022/11/06 08:41:17;;;;;;;8.60;2.70;;;;;;;;;;4977302;28;20057;-65
2022/11/06 08:43:51;;;;;;;5.90;2.10;;;;;;;;;;5026471;28;20514;-65
2022/11/06 08:46:21;;;;;;;5.88;2.10;;;;;;;;;;5021327;28;20053;-64
2022/11/06 08:48:51;;;;;;;6.63;2.35;;;;;;;;;;5028873;28;20070;-65
2022/11/06 08:51:21;;;;;;;9.23;2.63;;;;;;;;;;5013438;28;20049;-65
2022/11/06 08:53:52;;;;;;;6.78;2.20;;;;;;;;;;4994028;28;20069;-65
2022/11/06 08:56:23;;;;;;;4.88;1.98;;;;;;;;;;4977163;28;20502;-65
2022/11/06 08:58:53;;;;;;;6.68;2.45;;;;;;;;;;5019473;28;20120;-65
2022/11/06 09:01:23;;;;;;;7.85;2.22;;;;;;;;;;5060089;28;20052;-65
2022/11/06 09:03:54;;;;;;;6.90;2.30;;;;;;;;;;5089671;28;20411;-65
2022/11/06 09:06:25;;;;;;;11.77;2.50;;;;;;;;;;5072859;28;20056;-64
2022/11/06 09:08:56;;;;;;;6.97;2.22;;;;;;;;;;5056082;28;20539;-65
2022/11/06 09:11:26;;;;;;;5.47;2.00;;;;;;;;;;5089621;28;20067;-65
2022/11/06 09:13:57;;;;;;;10.27;2.35;;;;;;;;;;5089634;28;20480;-65
2022/11/06 09:16:27;;;;;;;5.95;2.28;;;;;;;;;;5072703;28;20048;-65
2022/11/06 09:18:59;;;;;;;7.72;2.30;;;;;;;;;;5038968;28;20052;-65
2022/11/06 09:21:29;;;;;;;4.80;2.10;;;;;;;;;;5089151;28;20467;-64
2022/11/06 09:23:59;;;;;;;3.97;1.98;;;;;;;;;;5089367;28;20058;-64
2022/11/06 09:26:29;;;;;;;8.82;2.28;;;;;;;;;;5089268;28;20047;-65
2022/11/06 09:28:59;;;;;;;10.05;2.38;;;;;;;;;;5089602;28;20056;-64
2022/11/06 09:31:29;;;;;;;6.53;2.30;;;;;;;;;;5111739;27;20070;-64
2022/11/06 09:33:59;;;;;;;5.53;2.13;;;;;;;;;;5132865;27;20498;-65
2022/11/06 09:36:29;;;;;;;10.57;2.10;;;;;;;;;;5132754;27;20051;-64
2022/11/06 09:38:58;;;;;;;6.68;1.77;;;;;;;;;;5132214;27;20043;-65
2022/11/06 09:41:44;;;;;;;6.18;2.55;;;;;;;;;;5132294;28;20501;-65
2022/11/06 09:44:33;;;;;;;9.32;2.67;;;;;;;;;;5096225;28;20051;-65
2022/11/06 09:47:13;;;;;;;9.02;3.10;;;;;;;;;;5132330;28;20047;-64
2022/11/06 09:49:54;;;;;;;12.48;3.40;;;;;;;;;;5132226;28;20509;-64
2022/11/06 09:52:31;;;;;;;7.78;2.55;;;;;;;;;;5079600;28;20055;-64
2022/11/06 09:55:15;;;;;;;47.10;15.35;;;;;;;;;;5132387;28;20039;-64
2022/11/06 09:57:56;;;;;;;9.30;4.50;;;;;;;;;;5132245;28;20047;-64
2022/11/06 10:00:27;;;;;;;6.03;2.00;;;;;;;;;;5082064;27;20055;-64
2022/11/06 10:03:06;;;;;;;6.00;2.58;;;;;;;;;;5136566;27;20499;-65
2022/11/06 10:05:38;;;;;;;8.13;1.90;;;;;;;;;;5136361;27;20066;-64
2022/11/06 10:08:21;;;;;;;3.65;1.20;;;;;;;;;;5118705;27;20050;-64
2022/11/06 10:11:06;;;;;;;4.30;1.35;;;;;;;;;;5136397;27;20035;-65
2022/11/06 10:14:03;;;;;;;2.63;1.10;;;;;;;;;;5136381;27;20043;-64
2022/11/06 10:16:40;;;;;;;;;;;;;;;;;;5083842;27;20054;-64
2022/11/06 10:19:33;;;;;;;3.38;1.15;;;;;;;;;;5092442;28;19920;-63
2022/11/06 10:22:12;;;;;;;4.88;1.20;;;;;;;;;;5018993;28;20064;-64
2022/11/06 10:24:57;;;;;;;4.50;1.55;;;;;;;;;;5002297;28;20057;-63
2022/11/06 10:27:44;;;;;;;5.68;1.67;;;;;;;;;;5010999;28;20053;-63
2022/11/06 10:30:17;;;;;;;1.90;1.10;;;;;;;;;;5012547;28;20060;-63
2022/11/06 10:33:09;;;;;;;2.83;1.13;;;;;;;;;;5012415;28;20524;-63
2022/11/06 10:35:50;;;;;;;2.30;1.10;;;;;;;;;;5012319;28;20045;-63
2022/11/06 10:38:42;;;;;;;6.43;1.00;;;;;;;;;;5012370;28;20062;-63
2022/11/06 10:41:20;;;;;;;3.38;1.00;;;;;;;;;;5012258;28;20050;-63
2022/11/06 10:44:01;;;;;;;1.98;0.90;;;;;;;;;;5012301;28;20054;-63
2022/11/06 10:47:08;;;;;;;2.85;0.85;;;;;;;;;;5012275;28;20061;-64
2022/11/06 10:49:54;;;;;;;4.28;1.52;;;;;;;;;;4953853;29;20058;-63
2022/11/06 10:52:42;;;;;;;2.58;0.80;;;;;;;;;;4953662;29;20047;-63
2022/11/06 10:55:21;;;;;;;3.00;1.10;;;;;;;;;;4953624;29;20055;-63
2022/11/06 10:58:09;;;;;;;3.97;1.05;;;;;;;;;;4971999;28;20065;-63
2022/11/06 11:00:41;;;;;;;3.53;0.80;;;;;;;;;;5008195;28;20069;-63
2022/11/06 11:03:31;;;;;;;5.50;1.40;;;;;;;;;;5011985;28;20053;-63
2022/11/06 11:06:03;;;;;;;1.58;0.68;;;;;;;;;;5029648;28;20409;-64
2022/11/06 11:08:51;;;;;;;4.32;0.98;;;;;;;;;;5031633;28;20049;-63
2022/11/06 11:11:25;;;;;;;3.95;1.05;;;;;;;;;;5014016;28;20069;-63
2022/11/06 11:14:00;;;;;;;5.75;2.00;;;;;;;;;;5015118;28;20049;-63
2022/11/06 11:16:38;;;;;;;4.18;1.73;;;;;;;;;;4998593;28;20053;-63
2022/11/06 11:19:33;;;;;;;3.45;2.15;;;;;;;;;;5030899;28;20065;-63
2022/11/06 11:22:23;;;;;;;3.60;1.30;;;;;;;;;;4992066;28;20065;-63
2022/11/06 11:25:01;;;;;;;3.67;1.67;;;;;;;;;;4959624;28;20057;-62
2022/11/06 11:27:42;;;;;;;3.97;1.02;;;;;;;;;;5011497;28;20069;-63
2022/11/06 11:30:28;;;;;;;2.10;1.02;;;;;;;;;;4979007;28;20430;-62
2022/11/06 11:32:59;;;;;;;3.67;1.00;;;;;;;;;;5033159;28;20068;-63
2022/11/06 11:35:31;;;;;;;2.30;0.85;;;;;;;;;;5051171;28;20040;-62
2022/11/06 11:38:13;;;;;;;3.63;0.70;;;;;;;;;;5051020;28;20059;-62
2022/11/06 11:40:44;;;;;;;2.28;0.82;;;;;;;;;;4986137;28;20584;-62
2022/11/06 11:43:29;;;;;;;7.82;2.75;;;;;;;;;;5051062;28;20048;-62
2022/11/06 11:46:07;;;;;;;4.13;1.05;;;;;;;;;;5050969;28;20068;-62
2022/11/06 11:48:44;;;;;;;3.63;1.20;;;;;;;;;;5001612;28;20686;-62
2022/11/06 11:51:25;;;;;;;4.28;1.38;;;;;;;;;;5001112;28;20064;-65
2022/11/06 11:54:06;;;;;;;2.28;1.00;;;;;;;;;;5050522;28;20053;-61
2022/11/06 11:56:44;;;;;;;1.77;0.80;;;;;;;;;;5050621;28;20052;-62
2022/11/06 11:59:34;;;;;;;1.73;0.85;;;;;;;;;;5077198;28;20074;-62
2022/11/06 12:02:42;;;;;;;3.35;0.98;;;;;;;;;;5077890;28;20067;-63
2022/11/06 12:05:17;;;;;;;2.50;1.17;;;;;;;;;;5030647;28;20049;-61
2022/11/06 12:07:52;;;;;;;3.20;1.42;;;;;;;;;;5014390;28;20058;-63
2022/11/06 12:10:25;;;;;;;4.05;1.23;;;;;;;;;;5030417;28;20101;-62
2022/11/06 12:12:57;;;;;;;2.92;1.20;;;;;;;;;;5030653;28;20528;-63
2022/11/06 12:15:50;;;;;;;2.85;1.33;;;;;;;;;;4991115;28;20058;-63
2022/11/06 12:18:38;;;;;;;3.38;1.35;;;;;;;;;;4990935;28;20070;-63
2022/11/06 12:21:23;;;;;;;3.22;1.15;;;;;;;;;;4970685;28;20061;-63
2022/11/06 12:24:00;;;;;;;2.85;1.40;;;;;;;;;;4939729;28;20055;-63
2022/11/06 12:26:36;;;;;;;5.25;1.77;;;;;;;;;;4971330;28;20055;-62
2022/11/06 12:29:26;;;;;;;5.30;1.35;;;;;;;;;;4971213;28;20518;-63
2022/11/06 12:32:26;;;;;;;5.18;1.40;;;;;;;;;;4969133;28;20066;-63
2022/11/06 12:35:28;;;;;;;4.80;1.33;;;;;;;;;;4913648;29;20420;-62
2022/11/06 12:38:20;;;;;;;3.35;1.30;;;;;;;;;;4823816;29;20538;-62
2022/11/06 12:41:09;;;;;;;6.43;1.90;;;;;;;;;;4863325;29;20056;-62
2022/11/06 12:43:50;;;;;;;6.85;2.35;;;;;;;;;;4894475;29;20063;-62
2022/11/06 12:46:42;;;;;;;2.53;1.40;;;;;;;;;;4894591;29;20063;-63
2022/11/06 12:49:40;;;;;;;4.72;1.27;;;;;;;;;;4894324;29;20429;-63
2022/11/06 12:52:32;;;;;;;3.35;1.02;;;;;;;;;;4896763;29;20060;-62
2022/11/06 12:55:17;;;;;;;2.55;1.00;;;;;;;;;;4875619;29;20061;-62
2022/11/06 12:57:50;;;;;;;3.22;1.30;;;;;;;;;;4847044;29;20540;-63
2022/11/06 13:00:24;;;;;;;2.72;1.17;;;;;;;;;;4832970;29;20056;-63
2022/11/06 13:03:21;;;;;;;;;;;;;;;;;;4894832;29;20061;-63
2022/11/06 13:06:16;;;;;;;2.67;1.30;;;;;;;;;;4878432;29;19923;-62
2022/11/06 13:09:06;;;;;;;5.18;1.35;;;;;;;;;;4863320;29;20592;-62
2022/11/06 13:11:53;;;;;;;3.63;1.50;;;;;;;;;;4906572;29;20052;-62
2022/11/06 13:14:52;;;;;;;3.67;1.73;;;;;;;;;;4962542;28;20053;-62
2022/11/06 13:17:24;;;;;;;3.92;1.73;;;;;;;;;;5016032;28;20063;-64
2022/11/06 13:19:57;;;;;;;3.53;1.20;;;;;;;;;;5032388;28;20056;-62
2022/11/06 13:22:36;;;;;;;5.70;2.10;;;;;;;;;;5028636;28;20386;-62
2022/11/06 13:25:27;;;;;;;5.28;1.50;;;;;;;;;;5028970;28;20058;-62
2022/11/06 13:28:22;;;;;;;2.33;1.10;;;;;;;;;;5028963;28;20061;-62
2022/11/06 13:30:53;;;;;;;7.10;2.17;;;;;;;;;;5022902;28;20045;-62
2022/11/06 13:33:34;;;;;;;2.97;1.67;;;;;;;;;;5078911;28;20044;-63
2022/11/06 13:36:06;;;;;;;4.25;2.05;;;;;;;;;;5107679;28;20537;-62
2022/11/06 13:38:45;;;;;;;5.32;1.60;;;;;;;;;;5108314;28;20039;-61
2022/11/06 13:41:24;;;;;;;2.85;1.27;;;;;;;;;;5106783;28;20047;-61
2022/11/06 13:44:06;;;;;;;9.07;3.15;;;;;;;;;;5089892;28;20055;-61
2022/11/06 13:46:56;;;;;;;2.50;1.17;;;;;;;;;;5081610;28;20514;-62
2022/11/06 13:49:43;;;;;;;3.13;1.75;;;;;;;;;;5105212;28;20052;-62
2022/11/06 13:52:24;;;;;;;5.35;1.42;;;;;;;;;;5055814;28;20047;-61
2022/11/06 13:55:21;;;;;;;2.90;1.40;;;;;;;;;;5089995;28;20391;-61
2022/11/06 13:58:24;;;;;;;2.28;1.00;;;;;;;;;;5107788;28;20050;-62
2022/11/06 14:01:24;;;;;;;3.40;1.00;;;;;;;;;;5117611;28;20054;-62
2022/11/06 14:04:20;;;;;;;3.35;1.85;;;;;;;;;;5120800;28;20426;-61
2022/11/06 14:06:57;;;;;;;1.85;1.15;;;;;;;;;;5119099;28;20051;-61
2022/11/06 14:09:30;;;;;;;15.00;7.55;;;;;;;;;;5088538;28;20051;-62
2022/11/06 14:12:05;;;;;;;4.32;2.13;;;;;;;;;;5072490;28;20060;-61
2022/11/06 14:14:42;;;;;;;1.95;0.95;;;;;;;;;;5073350;28;20071;-62
2022/11/06 14:17:15;;;;;;;6.15;1.20;;;;;;;;;;5062881;28;20059;-62
2022/11/06 14:19:49;;;;;;;3.25;1.13;;;;;;;;;;5062528;28;20052;-62
2022/11/06 14:22:36;;;;;;;5.30;3.33;;;;;;;;;;5088812;28;20051;-62
2022/11/06 14:25:27;;;;;;;4.70;2.97;;;;;;;;;;5088835;28;20447;-61
2022/11/06 14:27:58;;;;;;;2.60;1.25;;;;;;;;;;5088402;28;20072;-62
2022/11/06 14:30:31;;;;;;;2.67;1.10;;;;;;;;;;5097888;28;20051;-63
2022/11/06 14:33:39;;;;;;;2.63;1.10;;;;;;;;;;5096735;28;20043;-63
2022/11/06 14:36:25;;;;;;;3.83;2.40;;;;;;;;;;5102093;28;20055;-63
2022/11/06 14:38:56;;;;;;;4.22;1.40;;;;;;;;;;5099865;28;20132;-62
2022/11/06 14:41:35;;;;;;;3.10;1.17;;;;;;;;;;5099274;28;20558;-62
2022/11/06 14:44:21;;;;;;;2.63;0.70;;;;;;;;;;5089384;28;20044;-62
2022/11/06 14:46:56;;;;;;;3.70;0.85;;;;;;;;;;5100424;28;20059;-62
2022/11/06 14:49:42;;;;;;;2.72;0.63;;;;;;;;;;5122577;27;20047;-62
2022/11/06 14:52:15;;;;;;;2.05;0.90;;;;;;;;;;5132176;27;20054;-62
2022/11/06 14:54:54;;;;;;;5.28;1.33;;;;;;;;;;5093501;27;20051;-63
2022/11/06 14:57:47;;;;;;;3.50;1.48;;;;;;;;;;5135481;27;20043;-63
2022/11/06 15:00:47;;;;;;;2.58;0.88;;;;;;;;;;5046261;28;20047;-63
2022/11/06 15:03:20;;;;;;;1.63;0.73;;;;;;;;;;5002141;28;20045;-63
2022/11/06 15:05:54;;;;;;;1.45;0.82;;;;;;;;;;5048824;28;20064;-63
2022/11/06 15:08:47;;;;;;;3.75;1.00;;;;;;;;;;4992114;28;20520;-63
2022/11/06 15:11:29;;;;;;;3.83;1.30;;;;;;;;;;5051699;28;20064;-63
2022/11/06 15:14:00;;;;;;;5.50;1.33;;;;;;;;;;5030569;28;20069;-64
2022/11/06 15:16:42;;;;;;;4.20;1.10;;;;;;;;;;5047325;28;20056;-63
2022/11/06 15:19:19;;;;;;;1.90;0.90;;;;;;;;;;5004896;28;20048;-63
2022/11/06 15:22:00;;;;;;;2.35;0.68;;;;;;;;;;5018906;28;20052;-64
2022/11/06 15:24:41;;;;;;;5.50;0.75;;;;;;;;;;5012072;28;20050;-63
2022/11/06 15:27:16;;;;;;;2.88;0.82;;;;;;;;;;5024136;28;20510;-63
2022/11/06 15:29:51;;;;;;;8.30;7.07;;;;;;;;;;5002644;28;20058;-64
2022/11/06 15:32:25;;;;;;;1.90;0.93;;;;;;;;;;4995116;28;20054;-63
2022/11/06 15:35:07;;;;;;;4.07;1.30;;;;;;;;;;4953486;28;20059;-64
2022/11/06 15:37:51;;;;;;;2.13;0.63;;;;;;;;;;4991824;28;20053;-63
2022/11/06 15:40:33;;;;;;;4.65;1.73;;;;;;;;;;5023538;28;20062;-64
2022/11/06 15:43:32;;;;;;;3.63;0.80;;;;;;;;;;5019428;28;20062;-65
2022/11/06 15:46:11;;;;;;;1.48;1.00;;;;;;;;;;5031137;28;20041;-63
2022/11/06 15:48:44;;;;;;;4.05;2.00;;;;;;;;;;4989661;28;20046;-62
2022/11/06 15:51:26;;;;;;;2.78;1.30;;;;;;;;;;4989926;28;20538;-64
2022/11/06 15:53:56;;;;;;;9.27;5.57;;;;;;;;;;5008229;28;20403;-64
2022/11/06 15:56:31;;;;;;;2.42;0.70;;;;;;;;;;5002754;28;20050;-62
2022/11/06 15:59:13;;;;;;;3.70;1.33;;;;;;;;;;5029101;28;20052;-62